Gorham, NH (03581)

2:42 PM EDT on September 03, 2015 (GMT -0400)
Norwegian village | | Change Station
CLOSE
Current Station
Personal Weather Station
Location: Berlin, NH
Elevation: 1099 ft
Nearby Weather Stations

Elev 1099 ft 44.48 °N, 71.17 °W | Updated 19 seconds ago

Partly Cloudy
Partly Cloudy
88.3 °F
Feels Like 94 °F
N
1.6
Wind Variable Wind from North
Gusts 2.2 mph

Today
High -- | Low -- °F
--% Chance of Precip.
Yesterday
High -- | Low -- °F
Precip. -- in
6:09 AM 7:18 PM
Waning Gibbous, 68% visible
Pressure 29.91 in
Visibility 10.0 miles
Clouds Clear
Heat Index 94 °F
Dew Point 70 °F
Humidity 55%
Rainfall 0.15 in
Snow Depth Not available.
UV 8 out of 12
Pollen 7.70 out of 12
Air Quality Not available.
Flu Activity Not available.
METAR KHIE 031752Z AUTO VRB03KT 10SM CLR 24/20 A2992 RMK AO2 RAE26 SLP129 P0004 60005 T02440200 10267 20172 57004 TSNO
Pressure 29.91 in
Visibility 10.0 miles
Clouds Clear
Heat Index 94 °F
Dew Point 70 °F
Humidity 55%
Rainfall 0.15 in
Snow Depth Not available.
UV 8 out of 12
Pollen 7.70 out of 12
Air Quality Not available.
Flu Activity Not available.
METAR KHIE 031752Z AUTO VRB03KT 10SM CLR 24/20 A2992 RMK AO2 RAE26 SLP129 P0004 60005 T02440200 10267 20172 57004 TSNO

10-Day Weather Forecast

×

Almanac

Astronomy

Sep. 03, 2015 Rise Set
Actual Time
Civil Twilight
Nautical Twilight
Astronomical Twilight
Moon
Length of Visible Light
Length of Day
Tomorrow will be .
, % of the Moon is Illuminated

Today's Extremes

State Highs State Lows

Community

WunderPhotos

Upload Photos

1,852,001 photos uploaded!

WunderBlogs® & News

Nearby

Air Quality

  Air Quality AQ Index Pollutant
Not available.

Snow Depth

Station Depth Elevation

Earthquake Activity

City Distance Mag. Time & Date
Minimum magnitude displayed is 2.5.

Coastal Water Temperatures

Place Temperature

Stations

Nearby Weather Stations

Station Location Temp. Windchill Dew Point Humidity Wind Precip. Elev Updated Type